Time;durP1;ratioP1;P1;durP2;ratioP2;P2;SDS_P1;SDS_P2;PMS_P1;PMS_P2;Temp;Humidity;BMP_temperature;BMP_pressure;BME280_temperature;BME280_humidity;BME280_pressure;Samples;Min_cycle;Max_cycle;Signal;HPM_P1;HPM_P2
2022/12/04 00:01:14;;;;;;;9.95;9.15;;;;;;;;;;4976790;28;20049;-58
2022/12/04 00:03:39;;;;;;;8.95;8.30;;;;;;;;;;4977780;28;20101;-58
2022/12/04 00:06:08;;;;;;;8.60;8.00;;;;;;;;;;4990672;28;20070;-58
2022/12/04 00:08:34;;;;;;;8.52;7.90;;;;;;;;;;4973656;28;20046;-58
2022/12/04 00:11:00;;;;;;;9.40;8.70;;;;;;;;;;4976499;28;20050;-58
2022/12/04 00:13:25;;;;;;;7.90;7.30;;;;;;;;;;4976537;28;20030;-57
2022/12/04 00:15:51;;;;;;;7.60;7.00;;;;;;;;;;4974724;28;20121;-57
2022/12/04 00:18:17;;;;;;;8.88;8.10;;;;;;;;;;4974862;28;20536;-56
2022/12/04 00:20:42;;;;;;;7.95;7.35;;;;;;;;;;4977182;28;20043;-57
2022/12/04 00:23:07;;;;;;;14.75;9.00;;;;;;;;;;4974060;28;20054;-57
2022/12/04 00:25:33;;;;;;;10.80;9.82;;;;;;;;;;4981513;28;20042;-57
2022/12/04 00:27:58;;;;;;;10.27;9.55;;;;;;;;;;4972565;28;20108;-57
2022/12/04 00:30:23;;;;;;;9.98;9.05;;;;;;;;;;4976220;28;20125;-58
2022/12/04 00:32:49;;;;;;;10.32;9.52;;;;;;;;;;4974985;28;20514;-57
2022/12/04 00:35:15;;;;;;;9.07;8.38;;;;;;;;;;4974326;28;20165;-57
2022/12/04 00:37:40;;;;;;;9.07;8.48;;;;;;;;;;4973808;28;20042;-57
2022/12/04 00:40:07;;;;;;;11.23;8.68;;;;;;;;;;4976621;28;20046;-58
2022/12/04 00:42:32;;;;;;;9.20;8.40;;;;;;;;;;4974961;28;20042;-58
2022/12/04 00:44:58;;;;;;;7.90;7.35;;;;;;;;;;4977343;28;20057;-58
2022/12/04 00:47:23;;;;;;;8.52;7.93;;;;;;;;;;4978507;28;20046;-58
2022/12/04 00:49:49;;;;;;;9.52;8.70;;;;;;;;;;4976943;28;20562;-58
2022/12/04 00:52:14;;;;;;;7.20;6.70;;;;;;;;;;4976112;28;20068;-58
2022/12/04 00:54:39;;;;;;;8.38;7.75;;;;;;;;;;4975238;28;20041;-58
2022/12/04 00:57:05;;;;;;;8.07;7.47;;;;;;;;;;4975255;28;20050;-58
2022/12/04 00:59:30;;;;;;;8.52;7.82;;;;;;;;;;4977350;28;20030;-58
2022/12/04 01:01:56;;;;;;;8.52;7.82;;;;;;;;;;4974737;28;20055;-58
2022/12/04 01:04:21;;;;;;;8.63;7.85;;;;;;;;;;4979075;28;20042;-58
2022/12/04 01:06:46;;;;;;;9.93;9.00;;;;;;;;;;4980441;28;20038;-58
2022/12/04 01:09:12;;;;;;;8.07;7.47;;;;;;;;;;4977568;28;20039;-58
2022/12/04 01:11:37;;;;;;;8.45;7.85;;;;;;;;;;4979740;28;20034;-58
2022/12/04 01:14:03;;;;;;;7.70;7.10;;;;;;;;;;4975946;28;20556;-58
2022/12/04 01:16:32;;;;;;;9.10;8.20;;;;;;;;;;4979753;28;20047;-58
2022/12/04 01:18:58;;;;;;;8.15;7.63;;;;;;;;;;4978352;28;20029;-58
2022/12/04 01:21:23;;;;;;;7.82;7.22;;;;;;;;;;4976330;28;20035;-59
2022/12/04 01:23:49;;;;;;;7.32;6.82;;;;;;;;;;4976508;28;20065;-58
2022/12/04 01:26:14;;;;;;;7.88;7.38;;;;;;;;;;4979249;28;20034;-58
2022/12/04 01:28:40;;;;;;;9.00;8.27;;;;;;;;;;4978156;28;20038;-59
2022/12/04 01:31:12;;;;;;;9.20;8.50;;;;;;;;;;4978467;28;20714;-58
2022/12/04 01:33:37;;;;;;;7.70;7.10;;;;;;;;;;4976604;28;20074;-58
2022/12/04 01:36:05;;;;;;;7.93;7.32;;;;;;;;;;4976679;28;20058;-58
2022/12/04 01:38:32;;;;;;;9.18;8.27;;;;;;;;;;4978924;28;20037;-58
2022/12/04 01:40:57;;;;;;;7.07;6.57;;;;;;;;;;4977612;28;20134;-58
2022/12/04 01:43:23;;;;;;;8.52;7.93;;;;;;;;;;4976280;28;20121;-58
2022/12/04 01:45:53;;;;;;;8.07;7.47;;;;;;;;;;4976387;28;20050;-58
2022/12/04 01:48:26;;;;;;;7.90;7.10;;;;;;;;;;4975814;28;20034;-58
2022/12/04 01:50:57;;;;;;;8.23;7.63;;;;;;;;;;4977181;28;20045;-58
2022/12/04 01:53:24;;;;;;;8.10;7.50;;;;;;;;;;4974583;28;20026;-58
2022/12/04 01:55:49;;;;;;;8.25;7.65;;;;;;;;;;4978911;28;20050;-58
2022/12/04 01:58:19;;;;;;;8.38;7.60;;;;;;;;;;4976320;28;20034;-58
2022/12/04 02:00:44;;;;;;;8.25;7.53;;;;;;;;;;4979690;28;20030;-58
2022/12/04 02:03:12;;;;;;;8.85;8.25;;;;;;;;;;4976439;28;20368;-58
2022/12/04 02:05:37;;;;;;;7.75;7.05;;;;;;;;;;4977847;28;20049;-58
2022/12/04 02:08:04;;;;;;;8.43;7.75;;;;;;;;;;4975700;28;20034;-58
2022/12/04 02:10:51;;;;;;;8.50;7.90;;;;;;;;;;4976461;28;20096;-57
2022/12/04 02:13:29;;;;;;;7.82;7.22;;;;;;;;;;4977359;28;20695;-58
2022/12/04 02:16:06;;;;;;;8.43;7.82;;;;;;;;;;4976084;28;20041;-58
2022/12/04 02:19:01;;;;;;;8.27;7.57;;;;;;;;;;4974678;28;20042;-58
2022/12/04 02:21:33;;;;;;;7.97;7.38;;;;;;;;;;4975734;28;20132;-58
2022/12/04 02:24:14;;;;;;;8.63;8.02;;;;;;;;;;4977057;28;20038;-58
2022/12/04 02:27:08;;;;;;;8.45;7.85;;;;;;;;;;4979099;28;20168;-58
2022/12/04 02:29:45;;;;;;;8.82;8.10;;;;;;;;;;4969946;28;20038;-58
2022/12/04 02:32:34;;;;;;;8.63;8.02;;;;;;;;;;4976593;28;20039;-58
2022/12/04 02:35:13;;;;;;;9.45;8.45;;;;;;;;;;4980385;28;20523;-58
2022/12/04 02:37:47;;;;;;;7.95;7.35;;;;;;;;;;4976365;28;20330;-58
2022/12/04 02:40:26;;;;;;;9.27;8.38;;;;;;;;;;4974983;28;20041;-58
2022/12/04 02:43:19;;;;;;;8.48;7.80;;;;;;;;;;4975396;28;20483;-58
2022/12/04 02:45:58;;;;;;;7.53;7.03;;;;;;;;;;4976889;28;20030;-58
2022/12/04 02:48:27;;;;;;;8.27;7.68;;;;;;;;;;4975668;28;20035;-58
2022/12/04 02:50:55;;;;;;;8.77;8.07;;;;;;;;;;4974706;28;20043;-58
2022/12/04 02:53:26;;;;;;;8.32;7.75;;;;;;;;;;4975178;28;20038;-58
2022/12/04 02:55:56;;;;;;;8.43;7.83;;;;;;;;;;4976747;28;20126;-58
2022/12/04 02:58:26;;;;;;;8.65;7.95;;;;;;;;;;4978409;28;20052;-58
2022/12/04 03:00:55;;;;;;;7.47;6.97;;;;;;;;;;4974834;28;20045;-58
2022/12/04 03:03:24;;;;;;;7.72;7.22;;;;;;;;;;4977625;28;20487;-58
2022/12/04 03:05:57;;;;;;;9.13;8.43;;;;;;;;;;4975241;28;20030;-59
2022/12/04 03:08:33;;;;;;;9.50;8.55;;;;;;;;;;4974366;28;20072;-58
2022/12/04 03:11:00;;;;;;;7.93;7.43;;;;;;;;;;4979327;28;20030;-59
2022/12/04 03:13:33;;;;;;;8.50;7.82;;;;;;;;;;4978161;28;20034;-58
2022/12/04 03:16:15;;;;;;;8.75;8.05;;;;;;;;;;4977010;28;20030;-58
2022/12/04 03:18:51;;;;;;;8.77;7.93;;;;;;;;;;4975377;28;20413;-58
2022/12/04 03:21:21;;;;;;;8.82;8.13;;;;;;;;;;4978392;28;20029;-58
2022/12/04 03:23:55;;;;;;;7.50;7.00;;;;;;;;;;4974508;28;20049;-58
2022/12/04 03:26:25;;;;;;;9.10;8.40;;;;;;;;;;4977941;28;20041;-58
2022/12/04 03:28:56;;;;;;;8.40;7.80;;;;;;;;;;4974886;28;20100;-58
2022/12/04 03:31:25;;;;;;;;;;;;;;;;;;4976597;28;20050;-58
2022/12/04 03:33:55;;;;;;;7.68;7.13;;;;;;;;;;4977694;28;19914;-58
2022/12/04 03:36:29;;;;;;;10.03;9.17;;;;;;;;;;4976457;28;20052;-58
2022/12/04 03:39:07;;;;;;;8.98;8.18;;;;;;;;;;4974657;28;20277;-58
2022/12/04 03:41:56;;;;;;;8.30;7.68;;;;;;;;;;4975796;28;20049;-58
2022/12/04 03:44:37;;;;;;;8.52;7.93;;;;;;;;;;4976734;28;20046;-58
2022/12/04 03:47:07;;;;;;;7.32;6.82;;;;;;;;;;4975774;28;20026;-58
2022/12/04 03:49:54;;;;;;;8.57;7.97;;;;;;;;;;4974620;28;20033;-58
2022/12/04 03:52:33;;;;;;;7.88;7.28;;;;;;;;;;4975616;28;20037;-58
2022/12/04 03:55:05;;;;;;;7.78;7.18;;;;;;;;;;4976222;28;20035;-58
2022/12/04 03:57:36;;;;;;;8.45;7.85;;;;;;;;;;4975344;28;20049;-58
2022/12/04 04:00:04;;;;;;;7.75;7.25;;;;;;;;;;4978201;28;20372;-58
2022/12/04 04:02:33;;;;;;;8.27;7.65;;;;;;;;;;4975628;28;20105;-58
2022/12/04 04:05:01;;;;;;;8.63;8.00;;;;;;;;;;4974531;28;20630;-59
2022/12/04 04:07:40;;;;;;;8.98;8.13;;;;;;;;;;4976292;28;20122;-58
2022/12/04 04:10:18;;;;;;;8.80;8.07;;;;;;;;;;4973576;28;20117;-58
2022/12/04 04:24:36;;;;;;;8.05;7.50;;;;;;;;;;4976481;28;20034;-59
2022/12/04 04:27:02;;;;;;;9.07;8.38;;;;;;;;;;4978598;28;20034;-59
2022/12/04 04:29:28;;;;;;;8.55;7.90;;;;;;;;;;4973646;28;20047;-58
2022/12/04 04:32:04;;;;;;;8.55;7.95;;;;;;;;;;4977246;28;20045;-59
2022/12/04 04:34:46;;;;;;;7.55;6.95;;;;;;;;;;4975951;28;20035;-59
2022/12/04 04:37:27;;;;;;;7.85;7.35;;;;;;;;;;4974961;28;20042;-58
2022/12/04 04:40:13;;;;;;;8.10;7.50;;;;;;;;;;4979270;28;20495;-58
2022/12/04 04:42:51;;;;;;;8.20;7.60;;;;;;;;;;4980845;28;20034;-58
2022/12/04 04:45:22;;;;;;;7.55;7.05;;;;;;;;;;4980119;28;20037;-58
2022/12/04 04:47:53;;;;;;;8.85;8.10;;;;;;;;;;4979205;28;20035;-59
2022/12/04 04:50:19;;;;;;;7.68;7.18;;;;;;;;;;4977216;28;20053;-59
2022/12/04 04:52:49;;;;;;;7.68;7.18;;;;;;;;;;4979816;28;20048;-57
2022/12/04 04:55:16;;;;;;;8.10;7.57;;;;;;;;;;4981335;28;20040;-58
2022/12/04 04:57:42;;;;;;;9.13;8.52;;;;;;;;;;4976759;28;20043;-58
2022/12/04 05:00:11;;;;;;;8.18;7.47;;;;;;;;;;4979585;28;20034;-59
2022/12/04 05:02:37;;;;;;;10.07;9.32;;;;;;;;;;4975314;28;20041;-59
2022/12/04 05:05:03;;;;;;;7.70;7.20;;;;;;;;;;4975936;28;20524;-59
2022/12/04 05:07:28;;;;;;;9.05;8.35;;;;;;;;;;4977514;28;20043;-59
2022/12/04 05:09:54;;;;;;;8.45;7.85;;;;;;;;;;4977708;28;20041;-60
2022/12/04 05:12:19;;;;;;;8.77;8.18;;;;;;;;;;4978425;28;20030;-59
2022/12/04 05:14:46;;;;;;;8.90;8.30;;;;;;;;;;4977861;28;20750;-59
2022/12/04 05:17:11;;;;;;;7.90;7.38;;;;;;;;;;4974883;28;20042;-59
2022/12/04 05:22:25;;;;;;;9.77;9.07;;;;;;;;;;4980820;28;20043;-59
2022/12/04 05:24:50;;;;;;;7.80;7.28;;;;;;;;;;4977948;28;20073;-59
2022/12/04 05:27:16;;;;;;;7.97;7.47;;;;;;;;;;4978920;28;20042;-59
2022/12/04 05:29:41;;;;;;;9.32;8.57;;;;;;;;;;4977077;28;20035;-59
2022/12/04 05:32:06;;;;;;;8.52;7.90;;;;;;;;;;4979326;28;20037;-59
2022/12/04 05:34:32;;;;;;;8.13;7.53;;;;;;;;;;4978414;28;20042;-59
2022/12/04 05:36:57;;;;;;;8.25;7.65;;;;;;;;;;4979619;28;20030;-59
2022/12/04 05:39:23;;;;;;;9.00;8.32;;;;;;;;;;4976172;28;20100;-59
2022/12/04 05:41:48;;;;;;;8.25;7.68;;;;;;;;;;4975941;28;20026;-60
2022/12/04 05:44:13;;;;;;;8.65;8.05;;;;;;;;;;4978328;28;20026;-59
2022/12/04 05:46:39;;;;;;;9.10;8.35;;;;;;;;;;4977540;28;20113;-59
2022/12/04 05:49:04;;;;;;;9.43;8.73;;;;;;;;;;4976705;28;20030;-58
2022/12/04 05:51:29;;;;;;;8.57;7.97;;;;;;;;;;4977876;28;20053;-58
2022/12/04 05:53:55;;;;;;;9.95;9.25;;;;;;;;;;4978601;28;20031;-58
2022/12/04 05:56:21;;;;;;;8.60;7.90;;;;;;;;;;4976467;28;20061;-59
2022/12/04 05:58:46;;;;;;;8.52;7.93;;;;;;;;;;4983592;28;20473;-59
2022/12/04 06:01:16;;;;;;;8.80;8.20;;;;;;;;;;4977562;28;20125;-59
2022/12/04 06:03:42;;;;;;;10.35;9.55;;;;;;;;;;4976004;28;20057;-58
2022/12/04 06:06:12;;;;;;;8.63;7.90;;;;;;;;;;4974787;28;20062;-58
2022/12/04 06:08:37;;;;;;;9.32;8.63;;;;;;;;;;4973548;28;20037;-57
2022/12/04 06:11:09;;;;;;;9.80;8.98;;;;;;;;;;4976009;28;20062;-58
2022/12/04 06:13:35;;;;;;;9.32;8.48;;;;;;;;;;4975855;28;20037;-58
2022/12/04 06:16:00;;;;;;;8.45;7.85;;;;;;;;;;4977240;28;20778;-58
2022/12/04 06:18:25;;;;;;;7.97;7.45;;;;;;;;;;4974234;28;20030;-58
2022/12/04 06:20:51;;;;;;;8.55;7.93;;;;;;;;;;4975105;28;20483;-58
2022/12/04 06:23:16;;;;;;;9.15;8.35;;;;;;;;;;4979756;28;20030;-58
2022/12/04 06:25:41;;;;;;;9.65;8.75;;;;;;;;;;4973058;28;20046;-58
2022/12/04 06:28:07;;;;;;;9.32;8.63;;;;;;;;;;4974918;28;20038;-58
2022/12/04 06:30:33;;;;;;;9.35;8.60;;;;;;;;;;4977080;28;20130;-58
2022/12/04 06:32:58;;;;;;;8.80;8.18;;;;;;;;;;4978681;28;20026;-57
2022/12/04 06:35:23;;;;;;;8.20;7.60;;;;;;;;;;4975941;28;20836;-58
2022/12/04 06:37:49;;;;;;;9.23;8.52;;;;;;;;;;4974740;28;20451;-59
2022/12/04 06:40:14;;;;;;;7.70;7.10;;;;;;;;;;4977194;28;20034;-58
2022/12/04 06:42:39;;;;;;;8.55;7.75;;;;;;;;;;4977333;28;20034;-58
2022/12/04 06:45:05;;;;;;;7.82;7.28;;;;;;;;;;4974577;28;20034;-58
2022/12/04 06:47:32;;;;;;;9.63;8.75;;;;;;;;;;4977286;28;20042;-58
2022/12/04 06:49:58;;;;;;;8.38;7.80;;;;;;;;;;4983805;28;20034;-58
2022/12/04 06:52:23;;;;;;;8.13;7.47;;;;;;;;;;4976688;28;20585;-57
2022/12/04 06:54:48;;;;;;;8.55;7.90;;;;;;;;;;4977047;28;20034;-58
2022/12/04 06:57:14;;;;;;;9.55;8.75;;;;;;;;;;4974853;28;20515;-57
2022/12/04 06:59:39;;;;;;;8.88;8.13;;;;;;;;;;4974091;28;20038;-57
2022/12/04 07:02:05;;;;;;;9.15;8.30;;;;;;;;;;4975588;28;20064;-60
2022/12/04 07:04:30;;;;;;;11.10;8.93;;;;;;;;;;4977437;28;20073;-57
2022/12/04 07:06:55;;;;;;;8.68;8.07;;;;;;;;;;4975352;28;20369;-59
2022/12/04 07:09:22;;;;;;;10.88;9.93;;;;;;;;;;4974857;28;20377;-59
2022/12/04 07:11:47;;;;;;;8.82;7.95;;;;;;;;;;4976813;28;20026;-60
2022/12/04 07:14:13;;;;;;;8.98;8.25;;;;;;;;;;4975519;28;20145;-59
2022/12/04 07:16:40;;;;;;;9.10;8.40;;;;;;;;;;4975935;28;20038;-59
2022/12/04 07:19:05;;;;;;;9.77;8.98;;;;;;;;;;4978372;28;20103;-59
2022/12/04 07:21:30;;;;;;;9.50;8.75;;;;;;;;;;4982998;28;20038;-60
2022/12/04 07:23:58;;;;;;;10.38;8.77;;;;;;;;;;4976747;28;20035;-60
2022/12/04 07:26:25;;;;;;;8.23;7.60;;;;;;;;;;4976384;28;20369;-59
2022/12/04 07:28:52;;;;;;;15.50;10.05;;;;;;;;;;4976136;28;20037;-59
2022/12/04 07:31:19;;;;;;;8.88;8.05;;;;;;;;;;4976996;28;20077;-60
2022/12/04 07:33:46;;;;;;;10.00;9.20;;;;;;;;;;4978577;28;20030;-59
2022/12/04 07:36:14;;;;;;;8.82;8.07;;;;;;;;;;4974946;28;20142;-59
2022/12/04 07:38:40;;;;;;;8.60;7.85;;;;;;;;;;4976605;28;20062;-59
2022/12/04 07:41:06;;;;;;;8.43;7.72;;;;;;;;;;4977008;28;20473;-59
2022/12/04 07:43:32;;;;;;;8.75;8.05;;;;;;;;;;4976469;28;20117;-60
2022/12/04 07:46:03;;;;;;;8.63;7.93;;;;;;;;;;4982741;28;20077;-59
2022/12/04 07:48:28;;;;;;;8.70;7.90;;;;;;;;;;4978301;28;20027;-59
2022/12/04 07:51:09;;;;;;;9.38;8.68;;;;;;;;;;4976452;28;20120;-59
2022/12/04 07:53:35;;;;;;;9.57;8.88;;;;;;;;;;4970119;28;20473;-59
2022/12/04 07:56:02;;;;;;;10.13;9.32;;;;;;;;;;4976433;28;20105;-59
2022/12/04 07:58:27;;;;;;;8.35;7.75;;;;;;;;;;4976140;28;20034;-60
2022/12/04 08:00:53;;;;;;;8.18;7.57;;;;;;;;;;4976086;28;20424;-60
2022/12/04 08:03:18;;;;;;;9.50;8.77;;;;;;;;;;4976983;28;20043;-60
2022/12/04 08:05:43;;;;;;;8.18;7.57;;;;;;;;;;4975023;28;20590;-59
2022/12/04 08:08:09;;;;;;;8.85;8.15;;;;;;;;;;4977892;28;20514;-59
2022/12/04 08:10:34;;;;;;;8.30;7.70;;;;;;;;;;4975470;28;20101;-57
2022/12/04 08:12:59;;;;;;;9.00;8.25;;;;;;;;;;4979761;28;20368;-58
2022/12/04 08:15:25;;;;;;;7.68;7.18;;;;;;;;;;4977549;28;20030;-60
2022/12/04 08:17:50;;;;;;;8.25;7.65;;;;;;;;;;4976334;28;20035;-60
2022/12/04 08:20:15;;;;;;;9.48;8.70;;;;;;;;;;4979930;28;20026;-60
2022/12/04 08:22:41;;;;;;;7.68;7.07;;;;;;;;;;4977756;28;20473;-60
2022/12/04 08:25:07;;;;;;;8.80;8.15;;;;;;;;;;4978678;28;20106;-59
2022/12/04 08:27:32;;;;;;;10.32;8.90;;;;;;;;;;4978300;28;20047;-59
2022/12/04 08:29:58;;;;;;;9.80;8.98;;;;;;;;;;4977475;28;20391;-59
2022/12/04 08:32:23;;;;;;;10.48;9.63;;;;;;;;;;4978657;28;20089;-59
2022/12/04 08:34:50;;;;;;;8.77;8.18;;;;;;;;;;4976335;28;20038;-57
2022/12/04 08:37:15;;;;;;;8.43;7.72;;;;;;;;;;4978217;28;20708;-58
2022/12/04 08:39:41;;;;;;;8.18;7.57;;;;;;;;;;4978834;28;20041;-58
2022/12/04 08:42:07;;;;;;;8.32;7.72;;;;;;;;;;4978896;28;20551;-59
2022/12/04 08:44:32;;;;;;;9.02;8.43;;;;;;;;;;4977951;28;20043;-59
2022/12/04 08:46:57;;;;;;;11.27;8.52;;;;;;;;;;4978244;28;20082;-59
2022/12/04 08:49:23;;;;;;;10.32;9.32;;;;;;;;;;4982007;28;20038;-58
2022/12/04 08:51:48;;;;;;;8.27;7.57;;;;;;;;;;4978254;28;20656;-57
2022/12/04 08:54:13;;;;;;;8.70;8.10;;;;;;;;;;4978459;28;20747;-59
2022/12/04 08:56:39;;;;;;;9.98;9.07;;;;;;;;;;4976954;28;20035;-59
2022/12/04 08:59:04;;;;;;;7.78;7.18;;;;;;;;;;4979110;28;20046;-59
2022/12/04 09:01:30;;;;;;;8.52;7.85;;;;;;;;;;4982880;28;20376;-59
2022/12/04 09:03:56;;;;;;;8.88;7.82;;;;;;;;;;4981652;28;20089;-59
2022/12/04 09:06:21;;;;;;;9.63;8.82;;;;;;;;;;4981397;28;20065;-59
2022/12/04 09:08:47;;;;;;;8.88;8.27;;;;;;;;;;4978861;28;20046;-58
2022/12/04 09:11:16;;;;;;;8.75;8.05;;;;;;;;;;4976949;28;20783;-58
2022/12/04 09:13:42;;;;;;;9.30;8.52;;;;;;;;;;4977871;28;20712;-59
2022/12/04 09:16:09;;;;;;;8.00;7.35;;;;;;;;;;4978498;28;20030;-59
2022/12/04 09:18:36;;;;;;;9.15;8.45;;;;;;;;;;4976246;28;20046;-59
2022/12/04 09:21:08;;;;;;;8.60;7.75;;;;;;;;;;4977808;28;20077;-59
2022/12/04 09:23:35;;;;;;;8.77;8.18;;;;;;;;;;4975851;28;20070;-59
2022/12/04 09:26:01;;;;;;;8.43;7.82;;;;;;;;;;4975457;28;20469;-59
2022/12/04 09:28:27;;;;;;;10.15;9.35;;;;;;;;;;4978312;28;20054;-59
2022/12/04 09:31:00;;;;;;;10.02;8.93;;;;;;;;;;4980229;28;20046;-59
2022/12/04 09:33:26;;;;;;;8.35;7.63;;;;;;;;;;4975679;28;20066;-59
2022/12/04 09:35:52;;;;;;;8.60;7.93;;;;;;;;;;4976769;28;20621;-59
2022/12/04 09:38:17;;;;;;;8.32;7.72;;;;;;;;;;4979830;28;20110;-59
2022/12/04 09:41:24;;;;;;;8.55;7.88;;;;;;;;;;4971547;28;20053;-59
2022/12/04 09:44:01;;;;;;;8.63;7.93;;;;;;;;;;4975651;28;20074;-59
2022/12/04 09:46:34;;;;;;;9.48;8.68;;;;;;;;;;4977863;28;20428;-58
2022/12/04 09:49:05;;;;;;;10.48;9.68;;;;;;;;;;4976535;28;20057;-58
2022/12/04 09:51:33;;;;;;;8.73;8.13;;;;;;;;;;4972891;28;20548;-59
2022/12/04 09:54:07;;;;;;;8.95;8.25;;;;;;;;;;4978556;28;20173;-59
2022/12/04 09:56:32;;;;;;;9.00;8.23;;;;;;;;;;4975352;28;20818;-59
2022/12/04 09:59:04;;;;;;;10.13;9.18;;;;;;;;;;4976491;28;20049;-59
2022/12/04 10:01:45;;;;;;;10.13;9.07;;;;;;;;;;4976695;28;20044;-58
2022/12/04 10:04:11;;;;;;;9.57;8.88;;;;;;;;;;4978251;28;20097;-58
2022/12/04 10:06:48;;;;;;;9.25;8.65;;;;;;;;;;4977181;28;20058;-58
2022/12/04 10:09:33;;;;;;;9.18;8.48;;;;;;;;;;4979329;28;20039;-59
2022/12/04 10:12:20;;;;;;;9.50;8.80;;;;;;;;;;4979881;28;20113;-59
2022/12/04 10:15:03;;;;;;;9.35;8.65;;;;;;;;;;4978404;28;20121;-59
2022/12/04 10:17:52;;;;;;;9.90;9.07;;;;;;;;;;4978314;28;20057;-57
2022/12/04 10:20:42;;;;;;;8.57;7.97;;;;;;;;;;4977090;28;20105;-57
2022/12/04 10:23:23;;;;;;;8.32;7.72;;;;;;;;;;4977399;28;20062;-59
2022/12/04 10:25:50;;;;;;;9.45;8.70;;;;;;;;;;4976366;28;20041;-58
2022/12/04 10:28:31;;;;;;;8.23;7.63;;;;;;;;;;4976671;28;20038;-59
2022/12/04 10:31:00;;;;;;;9.50;8.77;;;;;;;;;;4976986;28;20091;-58
2022/12/04 10:33:38;;;;;;;9.88;9.13;;;;;;;;;;4978069;28;20042;-59
2022/12/04 10:36:04;;;;;;;9.15;8.45;;;;;;;;;;4994712;28;20038;-59
2022/12/04 10:38:43;;;;;;;10.30;9.57;;;;;;;;;;4976042;28;20042;-59
2022/12/04 10:41:23;;;;;;;10.00;9.30;;;;;;;;;;4976732;28;20448;-60
2022/12/04 10:43:49;;;;;;;9.03;8.33;;;;;;;;;;4976040;28;20061;-59
2022/12/04 10:46:19;;;;;;;10.40;9.13;;;;;;;;;;4977740;28;20285;-59
2022/12/04 10:48:48;;;;;;;9.35;8.68;;;;;;;;;;4977302;28;20034;-59
2022/12/04 10:51:18;;;;;;;10.38;9.55;;;;;;;;;;4973593;28;20034;-58
2022/12/04 10:53:45;;;;;;;9.50;8.80;;;;;;;;;;4976575;28;20057;-59
2022/12/04 10:56:20;;;;;;;10.23;9.32;;;;;;;;;;5048982;28;20939;-57
2022/12/04 10:59:00;;;;;;;8.77;8.18;;;;;;;;;;5047267;28;20044;-57
2022/12/04 11:01:28;;;;;;;10.90;10.10;;;;;;;;;;5048054;28;20082;-57
2022/12/04 11:04:08;;;;;;;12.95;10.32;;;;;;;;;;5047619;28;20032;-58
2022/12/04 11:06:34;;;;;;;11.77;10.75;;;;;;;;;;5049064;28;20061;-58
2022/12/04 11:09:02;;;;;;;11.07;10.27;;;;;;;;;;5045131;28;20032;-58
2022/12/04 11:11:30;;;;;;;11.00;10.10;;;;;;;;;;5045895;28;20597;-57
2022/12/04 11:14:04;;;;;;;11.05;10.25;;;;;;;;;;5047056;28;20106;-57
2022/12/04 11:16:37;;;;;;;10.88;10.10;;;;;;;;;;5049575;28;20041;-57
2022/12/04 11:19:18;;;;;;;12.13;10.98;;;;;;;;;;5045147;28;20032;-57
2022/12/04 11:21:43;;;;;;;12.57;11.38;;;;;;;;;;5045594;28;20095;-57
2022/12/04 11:24:22;;;;;;;11.23;10.43;;;;;;;;;;5045357;28;20045;-57
2022/12/04 11:26:48;;;;;;;15.82;10.18;;;;;;;;;;5045029;28;20071;-58
2022/12/04 11:29:16;;;;;;;9.77;8.90;;;;;;;;;;5046834;28;20029;-57
2022/12/04 11:31:48;;;;;;;11.70;10.85;;;;;;;;;;5047557;28;20113;-56
2022/12/04 11:34:18;;;;;;;14.02;12.68;;;;;;;;;;5046651;28;20063;-56
2022/12/04 11:36:58;;;;;;;10.30;9.57;;;;;;;;;;5045727;28;20037;-56
2022/12/04 11:39:40;;;;;;;12.48;11.57;;;;;;;;;;5047502;28;20536;-57
2022/12/04 11:42:17;;;;;;;10.35;9.65;;;;;;;;;;5045902;28;20029;-55
2022/12/04 11:45:16;;;;;;;11.02;10.15;;;;;;;;;;5047332;28;20483;-56
2022/12/04 11:47:55;;;;;;;11.27;10.48;;;;;;;;;;5043816;28;20041;-57
2022/12/04 11:50:32;;;;;;;11.23;10.43;;;;;;;;;;5046423;28;20044;-57
2022/12/04 11:53:09;;;;;;;11.48;10.35;;;;;;;;;;5046509;28;20037;-58
2022/12/04 11:55:49;;;;;;;11.27;10.38;;;;;;;;;;5046462;28;20116;-57
2022/12/04 11:58:36;;;;;;;11.40;10.50;;;;;;;;;;5046323;28;20037;-57
2022/12/04 12:01:25;;;;;;;12.10;10.93;;;;;;;;;;5047158;28;20056;-58
2022/12/04 12:04:06;;;;;;;12.88;11.63;;;;;;;;;;5046636;28;20387;-58
2022/12/04 12:06:57;;;;;;;11.20;10.40;;;;;;;;;;5039463;28;20088;-57
2022/12/04 12:09:34;;;;;;;11.57;10.68;;;;;;;;;;5018476;28;20041;-58
2022/12/04 12:12:09;;;;;;;10.23;9.45;;;;;;;;;;5033354;28;20459;-58
2022/12/04 12:14:48;;;;;;;10.93;9.73;;;;;;;;;;5032815;28;20046;-58
2022/12/04 12:17:34;;;;;;;18.70;11.13;;;;;;;;;;5033144;28;20045;-58
2022/12/04 12:20:13;;;;;;;10.40;9.73;;;;;;;;;;5034811;28;20044;-58
2022/12/04 12:22:54;;;;;;;10.43;9.73;;;;;;;;;;5034781;28;20080;-59
2022/12/04 12:25:23;;;;;;;10.00;9.20;;;;;;;;;;5036795;28;20085;-59
2022/12/04 12:28:15;;;;;;;10.88;9.98;;;;;;;;;;5034120;28;20136;-59
2022/12/04 12:31:04;;;;;;;10.40;9.43;;;;;;;;;;5037384;28;20060;-57
2022/12/04 12:33:35;;;;;;;9.38;8.68;;;;;;;;;;5031670;28;20033;-58
2022/12/04 12:36:00;;;;;;;11.38;10.40;;;;;;;;;;5034044;28;20036;-58
2022/12/04 12:38:39;;;;;;;11.00;10.15;;;;;;;;;;5034978;28;20044;-58
2022/12/04 12:41:05;;;;;;;10.30;9.52;;;;;;;;;;5033809;28;20634;-58
2022/12/04 12:43:38;;;;;;;10.85;10.05;;;;;;;;;;5035856;28;20072;-57
2022/12/04 12:46:14;;;;;;;11.02;10.13;;;;;;;;;;5035190;28;20140;-58
2022/12/04 12:48:54;;;;;;;13.07;10.57;;;;;;;;;;5032743;28;20103;-59
2022/12/04 12:51:39;;;;;;;11.40;10.40;;;;;;;;;;5033309;28;20435;-62
2022/12/04 12:54:54;;;;;;;10.18;9.38;;;;;;;;;;5033521;28;20025;-58
2022/12/04 12:57:35;;;;;;;10.50;9.75;;;;;;;;;;5030665;28;20107;-58
2022/12/04 13:00:06;;;;;;;10.85;9.93;;;;;;;;;;5032477;28;20414;-57
2022/12/04 13:02:37;;;;;;;11.43;10.27;;;;;;;;;;5034895;28;20513;-56
2022/12/04 13:05:09;;;;;;;11.30;10.50;;;;;;;;;;5033432;28;20041;-58
2022/12/04 13:07:41;;;;;;;10.25;9.35;;;;;;;;;;5030593;28;20068;-58
2022/12/04 13:10:13;;;;;;;10.10;9.40;;;;;;;;;;5032697;28;20061;-59
2022/12/04 13:13:01;;;;;;;10.50;9.73;;;;;;;;;;5032376;28;20036;-59
2022/12/04 13:15:41;;;;;;;10.93;10.20;;;;;;;;;;5034442;28;20043;-59
2022/12/04 13:18:11;;;;;;;12.20;10.95;;;;;;;;;;5035279;28;20099;-59
2022/12/04 13:20:47;;;;;;;10.57;9.85;;;;;;;;;;5036667;28;20029;-58
2022/12/04 13:23:34;;;;;;;11.43;10.52;;;;;;;;;;5033976;28;20390;-58
2022/12/04 13:26:08;;;;;;;9.98;9.23;;;;;;;;;;5035676;28;20071;-59
2022/12/04 13:29:00;;;;;;;9.68;8.98;;;;;;;;;;5036545;28;20052;-59
2022/12/04 13:31:44;;;;;;;11.57;10.77;;;;;;;;;;5034270;28;20055;-59
2022/12/04 13:34:22;;;;;;;9.77;9.07;;;;;;;;;;5033347;28;20104;-59
2022/12/04 13:37:20;;;;;;;11.07;10.27;;;;;;;;;;5049284;28;20123;-59
2022/12/04 13:40:22;;;;;;;9.98;9.27;;;;;;;;;;5034756;28;20064;-60
2022/12/04 13:42:48;;;;;;;11.30;10.57;;;;;;;;;;5033242;28;20128;-59
2022/12/04 13:45:28;;;;;;;9.93;9.23;;;;;;;;;;5031451;28;20515;-59
2022/12/04 13:48:01;;;;;;;10.20;9.50;;;;;;;;;;5040561;28;20041;-59
2022/12/04 13:50:35;;;;;;;10.20;9.45;;;;;;;;;;5031213;28;20525;-60
2022/12/04 13:53:01;;;;;;;11.05;10.20;;;;;;;;;;5048337;28;20071;-59
2022/12/04 13:55:34;;;;;;;11.30;10.35;;;;;;;;;;5032141;28;20131;-59
2022/12/04 13:58:03;;;;;;;10.30;9.50;;;;;;;;;;5034729;28;20047;-59
2022/12/04 14:00:33;;;;;;;10.55;9.45;;;;;;;;;;5041418;28;20033;-59
2022/12/04 14:03:22;;;;;;;12.18;9.45;;;;;;;;;;5034722;28;20034;-59
2022/12/04 14:05:48;;;;;;;10.60;9.80;;;;;;;;;;5032308;28;20477;-59
2022/12/04 14:08:24;;;;;;;10.98;9.95;;;;;;;;;;5033154;28;20159;-59
2022/12/04 14:11:12;;;;;;;10.48;9.68;;;;;;;;;;5032329;28;20107;-59
2022/12/04 14:13:48;;;;;;;12.43;11.25;;;;;;;;;;5032622;28;20120;-59
2022/12/04 14:16:41;;;;;;;11.57;10.48;;;;;;;;;;5034553;28;20131;-59
2022/12/04 14:19:07;;;;;;;10.27;9.55;;;;;;;;;;5045748;28;20076;-58
2022/12/04 14:21:39;;;;;;;12.75;11.43;;;;;;;;;;5032385;28;20029;-58
2022/12/04 14:24:16;;;;;;;9.95;9.23;;;;;;;;;;5032667;28;20118;-58
2022/12/04 14:26:49;;;;;;;10.30;9.32;;;;;;;;;;5030348;28;20056;-58
2022/12/04 14:29:27;;;;;;;13.07;11.90;;;;;;;;;;5032128;28;20056;-58
2022/12/04 14:31:59;;;;;;;9.63;8.95;;;;;;;;;;5030249;28;20037;-58
2022/12/04 14:34:28;;;;;;;11.43;10.60;;;;;;;;;;5031076;28;20033;-58
2022/12/04 14:36:56;;;;;;;11.75;10.80;;;;;;;;;;5032080;28;20075;-58
2022/12/04 14:39:36;;;;;;;10.50;9.70;;;;;;;;;;5035578;28;20381;-59
2022/12/04 14:42:12;;;;;;;10.73;9.93;;;;;;;;;;5036176;28;20134;-58
2022/12/04 14:44:38;;;;;;;12.32;10.43;;;;;;;;;;5032061;28;20041;-58
2022/12/04 14:47:34;;;;;;;10.85;10.15;;;;;;;;;;5032643;28;20048;-58
2022/12/04 14:50:21;;;;;;;11.05;10.15;;;;;;;;;;5030643;28;20052;-58
2022/12/04 14:53:28;;;;;;;10.93;10.13;;;;;;;;;;5031168;28;20620;-59
2022/12/04 14:56:14;;;;;;;9.57;8.98;;;;;;;;;;5031582;28;20374;-59
2022/12/04 14:58:39;;;;;;;10.85;10.10;;;;;;;;;;5032964;28;20056;-59
2022/12/04 15:01:26;;;;;;;10.98;10.13;;;;;;;;;;5041165;28;20379;-59
2022/12/04 15:03:56;;;;;;;17.95;10.63;;;;;;;;;;5033379;28;20044;-59
2022/12/04 15:06:27;;;;;;;10.68;9.88;;;;;;;;;;5031480;28;20613;-59
2022/12/04 15:14:47;;;;;;;10.88;10.07;;;;;;;;;;5030757;28;20037;-59
2022/12/04 15:17:15;;;;;;;10.75;9.95;;;;;;;;;;5032284;28;20045;-59
2022/12/04 15:19:41;;;;;;;11.65;10.55;;;;;;;;;;5031331;28;20402;-59
2022/12/04 15:22:17;;;;;;;11.32;10.52;;;;;;;;;;5031275;28;20098;-59